createdAt,value
2017-07-11T00:00:02.224Z,19
2017-07-11T00:00:12.884Z,19
2017-07-11T00:00:22.875Z,19
2017-07-11T00:00:33.208Z,19
2017-07-11T00:00:42.887Z,19
2017-07-11T00:00:52.528Z,19
2017-07-11T00:01:02.523Z,19
2017-07-11T00:01:13.202Z,19
2017-07-11T00:01:22.174Z,19
2017-07-11T00:01:33.178Z,19.1
2017-07-11T00:01:42.844Z,19
2017-07-11T00:01:52.831Z,19
2017-07-11T00:02:02.829Z,19
2017-07-11T00:02:12.835Z,19
2017-07-11T00:02:23.154Z,19
2017-07-11T00:02:32.477Z,19
2017-07-11T00:02:42.474Z,19
2017-07-11T00:02:52.806Z,19
2017-07-11T00:03:02.130Z,19
2017-07-11T00:03:12.789Z,19
2017-07-11T00:03:22.791Z,19
2017-07-11T00:03:32.785Z,19
2017-07-11T00:03:43.115Z,19
2017-07-11T00:03:52.780Z,19
2017-07-11T00:04:02.441Z,19
2017-07-11T00:04:12.095Z,19
2017-07-11T00:04:22.424Z,19.1
2017-07-11T00:04:33.090Z,19
2017-07-11T00:04:42.418Z,19
2017-07-11T00:04:52.414Z,19.1
2017-07-11T00:05:02.409Z,19.1
2017-07-11T00:05:12.061Z,19.1
2017-07-11T00:05:22.733Z,19.1
2017-07-11T00:05:32.724Z,19.1
2017-07-11T00:05:43.090Z,19.1
2017-07-11T00:05:52.719Z,19.1
2017-07-11T00:06:02.709Z,19.1
2017-07-11T00:06:12.710Z,19.1
2017-07-11T00:06:22.701Z,19.1
2017-07-11T00:06:33.032Z,19.1
2017-07-11T00:06:42.020Z,19.1
2017-07-11T00:06:53.020Z,19
2017-07-11T00:07:02.344Z,19
2017-07-11T00:07:12.674Z,19
2017-07-11T00:07:22.332Z,19
2017-07-11T00:07:32.998Z,19
2017-07-11T00:07:42.667Z,19.1
2017-07-11T00:07:52.989Z,19.1
2017-07-11T00:08:01.982Z,19.1
2017-07-11T00:08:12.650Z,19.1
2017-07-11T00:08:22.975Z,19.1
2017-07-11T00:08:32.670Z,19.1
2017-07-11T00:08:42.300Z,19
2017-07-11T00:08:52.296Z,19
2017-07-11T00:09:01.959Z,19
2017-07-11T00:09:12.284Z,19
2017-07-11T00:09:22.612Z,19.1
2017-07-11T00:09:32.608Z,19
2017-07-11T00:09:42.269Z,19
2017-07-11T00:09:52.598Z,19
2017-07-11T00:10:02.256Z,19
2017-07-11T00:10:12.583Z,19
2017-07-11T00:10:22.246Z,19
2017-07-11T00:10:32.243Z,19.1
2017-07-11T00:10:42.573Z,19
2017-07-11T00:10:52.234Z,19
2017-07-11T00:11:01.892Z,19
2017-07-11T00:11:12.560Z,19.1
2017-07-11T00:11:22.219Z,19.1
2017-07-11T00:11:32.549Z,19.1
2017-07-11T00:11:42.213Z,19
2017-07-11T00:11:52.880Z,19.1
2017-07-11T00:12:02.201Z,19
2017-07-11T00:12:12.527Z,19
2017-07-11T00:12:22.864Z,19
2017-07-11T00:12:32.852Z,19
2017-07-11T00:12:42.848Z,19
2017-07-11T00:12:51.840Z,19.1
2017-07-11T00:13:02.503Z,19
2017-07-11T00:13:12.163Z,19
2017-07-11T00:13:22.493Z,19
2017-07-11T00:13:32.843Z,19
2017-07-11T00:13:42.150Z,19.1
2017-07-11T00:13:51.810Z,19.1
2017-07-11T00:14:02.807Z,19.1
2017-07-11T00:14:12.138Z,19.1
2017-07-11T00:14:22.800Z,19.1
2017-07-11T00:14:32.127Z,19.1
2017-07-11T00:14:42.790Z,19.1
2017-07-11T00:14:52.783Z,19.1
2017-07-11T00:15:02.444Z,19.1
2017-07-11T00:15:11.770Z,19.1
2017-07-11T00:15:22.437Z,19.1
2017-07-11T00:15:32.429Z,19.1
2017-07-11T00:15:41.757Z,19
2017-07-11T00:15:52.756Z,19
2017-07-11T00:16:02.078Z,19
2017-07-11T00:16:11.741Z,19
2017-07-11T00:16:22.400Z,19
2017-07-11T00:16:31.856Z,19
2017-07-11T00:16:42.399Z,19
2017-07-11T00:16:52.393Z,19
2017-07-11T00:17:02.734Z,19
2017-07-11T00:17:12.052Z,19.1
2017-07-11T00:17:22.389Z,19.1
2017-07-11T00:17:32.372Z,19.1
2017-07-11T00:17:42.034Z,19.1
2017-07-11T00:17:52.696Z,19.1
2017-07-11T00:18:02.689Z,19.1
2017-07-11T00:18:12.349Z,19.1
2017-07-11T00:18:22.408Z,19.1
2017-07-11T00:18:32.343Z,19.1
2017-07-11T00:18:42.001Z,19.1
2017-07-11T00:18:52.334Z,19.1
2017-07-11T00:19:01.994Z,19.1
2017-07-11T00:19:12.324Z,19.1
2017-07-11T00:19:22.655Z,19.1
2017-07-11T00:19:31.977Z,19.1
2017-07-11T00:19:42.306Z,19
2017-07-11T00:19:52.368Z,19
2017-07-11T00:20:01.959Z,19
2017-07-11T00:20:12.312Z,19
2017-07-11T00:20:21.957Z,19
2017-07-11T00:20:32.279Z,19
2017-07-11T00:20:42.271Z,19
2017-07-11T00:20:51.943Z,19
2017-07-11T00:21:01.934Z,19
2017-07-11T00:21:11.595Z,19
2017-07-11T00:21:22.603Z,19
2017-07-11T00:21:31.582Z,19
2017-07-11T00:21:41.909Z,19
2017-07-11T00:21:52.579Z,19
2017-07-11T00:22:02.242Z,19
2017-07-11T00:22:11.561Z,19
2017-07-11T00:22:21.889Z,19
2017-07-11T00:22:31.553Z,19
2017-07-11T00:22:42.216Z,19
2017-07-11T00:22:52.213Z,19
2017-07-11T00:23:02.543Z,19
2017-07-11T00:23:11.530Z,19
2017-07-11T00:23:21.528Z,19
2017-07-11T00:23:32.889Z,19
2017-07-11T00:23:42.185Z,19
2017-07-11T00:23:52.182Z,19
2017-07-11T00:24:02.177Z,19
2017-07-11T00:24:11.837Z,19
2017-07-11T00:24:21.830Z,19
2017-07-11T00:24:32.160Z,19
2017-07-11T00:24:42.498Z,19
2017-07-11T00:24:52.492Z,19
2017-07-11T00:25:02.148Z,19
2017-07-11T00:25:12.147Z,19
2017-07-11T00:25:22.146Z,19.1
2017-07-11T00:25:32.471Z,19
2017-07-11T00:25:41.797Z,19
2017-07-11T00:25:52.127Z,19.1
2017-07-11T00:26:02.118Z,19.1
2017-07-11T00:26:11.785Z,19
2017-07-11T00:26:22.466Z,19.1
2017-07-11T00:26:32.106Z,19
2017-07-11T00:26:41.768Z,19
2017-07-11T00:26:52.433Z,19.1
2017-07-11T00:27:01.757Z,19.1
2017-07-11T00:27:11.417Z,19.1
2017-07-11T00:27:22.078Z,19.1
2017-07-11T00:27:31.737Z,19.1
2017-07-11T00:27:41.399Z,19.1
2017-07-11T00:27:51.729Z,19.1
2017-07-11T00:28:02.062Z,19.1
2017-07-11T00:28:11.389Z,19.1
2017-07-11T00:28:22.051Z,19.1
2017-07-11T00:28:31.709Z,19.1
2017-07-11T00:28:41.709Z,19.1
2017-07-11T00:28:52.051Z,19.1
2017-07-11T00:29:02.026Z,19.1
2017-07-11T00:29:12.057Z,19.1
2017-07-11T00:29:22.024Z,19.1
2017-07-11T00:29:32.017Z,19.1
2017-07-11T00:29:41.680Z,19.1
2017-07-11T00:29:52.013Z,19.1
2017-07-11T00:30:01.673Z,19.1
2017-07-11T00:30:11.666Z,19.1
2017-07-11T00:30:21.992Z,19.1
2017-07-11T00:30:31.653Z,19.1
2017-07-11T00:30:41.990Z,19.2
2017-07-11T00:30:51.975Z,19.2
2017-07-11T00:31:01.982Z,19.2
2017-07-11T00:31:11.763Z,19.1
2017-07-11T00:31:21.960Z,19.1
2017-07-11T00:31:31.961Z,19.1
2017-07-11T00:31:41.954Z,19.1
2017-07-11T00:31:51.947Z,19.1
2017-07-11T00:32:01.274Z,19.1
2017-07-11T00:32:11.936Z,19.1
2017-07-11T00:32:21.592Z,19.1
2017-07-11T00:32:31.924Z,19.1
2017-07-11T00:32:41.923Z,19.1
2017-07-11T00:32:51.922Z,19.1
2017-07-11T00:33:01.911Z,19.1
2017-07-11T00:33:12.242Z,19.1
2017-07-11T00:33:21.899Z,19.1
2017-07-11T00:33:32.233Z,19.1
2017-07-11T00:33:41.555Z,19.1
2017-07-11T00:33:52.220Z,19.1
2017-07-11T00:34:01.549Z,19.1
2017-07-11T00:34:11.544Z,19.1
2017-07-11T00:34:22.205Z,19.1
2017-07-11T00:34:31.195Z,19.1
2017-07-11T00:34:42.567Z,19.1
2017-07-11T00:34:51.646Z,19.1
2017-07-11T00:35:01.858Z,19.1
2017-07-11T00:35:12.192Z,19
2017-07-11T00:35:21.173Z,19.1
2017-07-11T00:35:31.838Z,19.1
2017-07-11T00:35:41.501Z,19
2017-07-11T00:35:51.495Z,19
2017-07-11T00:36:01.492Z,19
2017-07-11T00:36:11.825Z,19
2017-07-11T00:36:21.482Z,19
2017-07-11T00:36:31.805Z,19
2017-07-11T00:36:42.148Z,19
2017-07-11T00:36:51.125Z,19
2017-07-11T00:37:01.464Z,19
2017-07-11T00:37:11.123Z,19
2017-07-11T00:37:21.783Z,19
2017-07-11T00:37:32.109Z,19
2017-07-11T00:37:41.774Z,19
2017-07-11T00:37:52.107Z,19
2017-07-11T00:38:01.096Z,19
2017-07-11T00:38:11.209Z,19
2017-07-11T00:38:22.091Z,19
2017-07-11T00:38:32.082Z,19.1
2017-07-11T00:38:41.412Z,19
2017-07-11T00:38:51.738Z,19
2017-07-11T00:39:01.399Z,19
2017-07-11T00:39:11.733Z,19
2017-07-11T00:39:22.061Z,19
2017-07-11T00:39:31.718Z,19
2017-07-11T00:39:41.378Z,19.1
2017-07-11T00:39:51.712Z,19.1
2017-07-11T00:40:01.038Z,19.1
2017-07-11T00:40:11.698Z,19
2017-07-11T00:40:21.363Z,19
2017-07-11T00:40:32.020Z,19
2017-07-11T00:40:42.022Z,19
2017-07-11T00:40:52.397Z,19
2017-07-11T00:41:02.034Z,19
2017-07-11T00:41:11.339Z,19
2017-07-11T00:41:21.333Z,19
2017-07-11T00:41:31.658Z,19
2017-07-11T00:41:41.657Z,19
2017-07-11T00:41:51.654Z,19
2017-07-11T00:42:01.309Z,19
2017-07-11T00:42:11.644Z,19
2017-07-11T00:42:21.631Z,19
2017-07-11T00:42:31.635Z,19
2017-07-11T00:42:41.622Z,19
2017-07-11T00:42:51.622Z,19
2017-07-11T00:43:01.621Z,19
2017-07-11T00:43:11.612Z,19
2017-07-11T00:43:21.609Z,19
2017-07-11T00:43:31.267Z,19
2017-07-11T00:43:41.260Z,19
2017-07-11T00:43:51.589Z,19
2017-07-11T00:44:01.608Z,19
2017-07-11T00:44:11.246Z,19
2017-07-11T00:44:21.578Z,19
2017-07-11T00:44:30.912Z,19
2017-07-11T00:44:41.232Z,19
2017-07-11T00:44:51.904Z,19
2017-07-11T00:45:01.223Z,19
2017-07-11T00:45:11.890Z,19
2017-07-11T00:45:21.210Z,19
2017-07-11T00:45:31.882Z,19
2017-07-11T00:45:41.202Z,18.9
2017-07-11T00:45:51.873Z,19
2017-07-11T00:46:01.191Z,19
2017-07-11T00:46:11.528Z,18.9
2017-07-11T00:46:21.185Z,18.9
2017-07-11T00:46:31.518Z,19
2017-07-11T00:46:41.839Z,19
2017-07-11T00:46:51.169Z,19
2017-07-11T00:47:01.501Z,19
2017-07-11T00:47:11.499Z,19
2017-07-11T00:47:21.829Z,19
2017-07-11T00:47:31.817Z,18.9
2017-07-11T00:47:41.481Z,18.9
2017-07-11T00:47:51.475Z,19
2017-07-11T00:48:01.137Z,19
2017-07-11T00:48:11.127Z,19
2017-07-11T00:48:21.464Z,19
2017-07-11T00:48:31.459Z,19
2017-07-11T00:48:41.450Z,19
2017-07-11T00:48:51.448Z,19
2017-07-11T00:49:00.771Z,19
2017-07-11T00:49:11.776Z,19
2017-07-11T00:49:21.100Z,19
2017-07-11T00:49:31.429Z,19
2017-07-11T00:49:41.422Z,19
2017-07-11T00:49:51.412Z,18.9
2017-07-11T00:50:01.406Z,18.9
2017-07-11T00:50:11.403Z,18.9
2017-07-11T00:50:21.059Z,18.9
2017-07-11T00:50:31.734Z,18.9
2017-07-11T00:50:41.181Z,18.9
2017-07-11T00:50:51.719Z,18.9
2017-07-11T00:51:01.048Z,18.9
2017-07-11T00:51:11.379Z,18.9
2017-07-11T00:51:21.706Z,18.9
2017-07-11T00:51:31.365Z,18.9
2017-07-11T00:51:41.363Z,18.9
2017-07-11T00:51:50.687Z,18.9
2017-07-11T00:52:01.689Z,18.9
2017-07-11T00:52:11.011Z,18.9
2017-07-11T00:52:21.680Z,18.9
2017-07-11T00:52:31.340Z,18.9
2017-07-11T00:52:41.336Z,18.9
2017-07-11T00:52:51.662Z,18.9
2017-07-11T00:53:01.328Z,18.9
2017-07-11T00:53:11.314Z,18.9
2017-07-11T00:53:20.983Z,18.9
2017-07-11T00:53:30.639Z,18.9
2017-07-11T00:53:41.642Z,18.9
2017-07-11T00:53:50.621Z,18.9
2017-07-11T00:54:01.308Z,18.9
2017-07-11T00:54:11.286Z,18.9
2017-07-11T00:54:20.946Z,18.9
2017-07-11T00:54:31.617Z,18.9
2017-07-11T00:54:40.938Z,18.9
2017-07-11T00:54:50.934Z,18.9
2017-07-11T00:55:00.593Z,18.9
2017-07-11T00:55:11.604Z,18.9
2017-07-11T00:55:21.252Z,18.9
2017-07-11T00:55:31.249Z,18.9
2017-07-11T00:55:40.911Z,18.9
2017-07-11T00:55:50.903Z,18.9
2017-07-11T00:56:01.567Z,18.9
2017-07-11T00:56:11.226Z,18.9
2017-07-11T00:56:20.889Z,18.9
2017-07-11T00:56:31.219Z,18.9
2017-07-11T00:56:40.545Z,18.9
2017-07-11T00:56:51.207Z,18.9
2017-07-11T00:57:00.538Z,18.9
2017-07-11T00:57:11.196Z,18.9
2017-07-11T00:57:20.522Z,18.8
2017-07-11T00:57:31.524Z,18.8
2017-07-11T00:57:40.845Z,18.8
2017-07-11T00:57:51.175Z,18.8
2017-07-11T00:58:01.510Z,18.8
2017-07-11T00:58:11.172Z,18.8
2017-07-11T00:58:20.833Z,18.8
2017-07-11T00:58:31.155Z,18.8
2017-07-11T00:58:40.486Z,18.8
2017-07-11T00:58:51.147Z,18.8
2017-07-11T00:59:00.475Z,18.8
2017-07-11T00:59:11.140Z,18.8
2017-07-11T00:59:20.799Z,18.8
2017-07-11T00:59:31.489Z,18.8
2017-07-11T00:59:41.126Z,18.8
2017-07-11T00:59:50.781Z,18.8
2017-07-11T01:00:00.446Z,18.8
2017-07-11T01:00:11.507Z,18.8
2017-07-11T01:00:21.444Z,18.8
2017-07-11T01:00:31.101Z,18.8
2017-07-11T01:00:40.760Z,18.8
2017-07-11T01:00:51.090Z,18.8
2017-07-11T01:01:00.412Z,18.8
2017-07-11T01:01:11.078Z,18.8
2017-07-11T01:01:21.085Z,18.8
2017-07-11T01:01:31.406Z,18.8
2017-07-11T01:01:40.729Z,18.8
2017-07-11T01:01:51.061Z,18.8
2017-07-11T01:02:00.722Z,18.8
2017-07-11T01:02:11.048Z,18.8
2017-07-11T01:02:21.377Z,18.8
2017-07-11T01:02:31.375Z,18.8
2017-07-11T01:02:41.039Z,18.8
2017-07-11T01:02:51.034Z,18.8
2017-07-11T01:03:01.021Z,18.8
2017-07-11T01:03:11.358Z,18.8
2017-07-11T01:03:21.015Z,18.8
2017-07-11T01:03:30.343Z,18.8
2017-07-11T01:03:41.010Z,18.8
2017-07-11T01:03:50.668Z,18.8
2017-07-11T01:04:01.020Z,18.8
2017-07-11T01:04:10.991Z,18.8
2017-07-11T01:04:20.321Z,18.8
2017-07-11T01:04:30.645Z,18.8
2017-07-11T01:04:40.980Z,18.8
2017-07-11T01:04:51.001Z,18.7
2017-07-11T01:05:00.630Z,18.8
2017-07-11T01:05:10.628Z,18.7
2017-07-11T01:05:21.291Z,18.7
2017-07-11T01:05:30.615Z,18.7
2017-07-11T01:05:40.610Z,18.7
2017-07-11T01:05:51.281Z,18.7
2017-07-11T01:06:00.937Z,18.7
2017-07-11T01:06:10.931Z,18.7
2017-07-11T01:06:21.264Z,18.7
2017-07-11T01:06:30.924Z,18.7
2017-07-11T01:06:40.586Z,18.7
2017-07-11T01:06:50.926Z,18.7
2017-07-11T01:07:01.239Z,18.7
2017-07-11T01:07:10.900Z,18.7
2017-07-11T01:07:20.563Z,18.7
2017-07-11T01:07:30.220Z,18.7
2017-07-11T01:07:40.890Z,18.7
2017-07-11T01:07:50.550Z,18.7
2017-07-11T01:08:00.543Z,18.7
2017-07-11T01:08:10.538Z,18.7
2017-07-11T01:08:20.870Z,18.7
2017-07-11T01:08:30.523Z,18.7
2017-07-11T01:08:40.911Z,18.7
2017-07-11T01:08:50.519Z,18.7
2017-07-11T01:09:01.193Z,18.7
2017-07-11T01:09:11.173Z,18.7
2017-07-11T01:09:20.841Z,18.7
2017-07-11T01:09:31.168Z,18.7
2017-07-11T01:09:40.827Z,18.7
2017-07-11T01:09:50.488Z,18.7
2017-07-11T01:10:00.821Z,18.7
2017-07-11T01:10:10.812Z,18.7
2017-07-11T01:10:20.141Z,18.7
2017-07-11T01:10:30.136Z,18.7
2017-07-11T01:10:41.134Z,18.6
2017-07-11T01:10:50.457Z,18.6
2017-07-11T01:11:00.456Z,18.6
2017-07-11T01:11:10.783Z,18.6
2017-07-11T01:11:20.441Z,18.6
2017-07-11T01:11:30.774Z,18.6
2017-07-11T01:11:40.769Z,18.6
2017-07-11T01:11:50.765Z,18.6
2017-07-11T01:12:00.425Z,18.6
2017-07-11T01:12:11.088Z,18.6
2017-07-11T01:12:20.077Z,18.6
2017-07-11T01:12:30.074Z,18.5
2017-07-11T01:12:40.738Z,18.5
2017-07-11T01:12:51.067Z,18.5
2017-07-11T01:13:01.062Z,18.5
2017-07-11T01:13:10.723Z,18.5
2017-07-11T01:13:20.716Z,18.5
2017-07-11T01:13:30.714Z,18.5
2017-07-11T01:13:41.057Z,18.5
2017-07-11T01:13:50.702Z,18.5
2017-07-11T01:14:00.702Z,18.5
2017-07-11T01:14:10.359Z,18.5
2017-07-11T01:14:20.354Z,18.4
2017-07-11T01:14:30.684Z,18.5
2017-07-11T01:14:40.683Z,18.5
2017-07-11T01:14:50.341Z,18.5
2017-07-11T01:15:00.342Z,18.5
2017-07-11T01:15:10.330Z,18.5
2017-07-11T01:15:20.661Z,18.5
2017-07-11T01:15:30.657Z,18.5
2017-07-11T01:15:40.986Z,18.5
2017-07-11T01:15:50.985Z,18.5
2017-07-11T01:15:59.969Z,18.5
2017-07-11T01:16:10.641Z,18.5
2017-07-11T01:16:20.296Z,18.5
2017-07-11T01:16:30.623Z,18.5
2017-07-11T01:16:40.628Z,18.5
2017-07-11T01:16:50.620Z,18.5
2017-07-11T01:17:00.284Z,18.5
2017-07-11T01:17:10.609Z,18.5
2017-07-11T01:17:20.264Z,18.5
2017-07-11T01:17:30.929Z,18.5
2017-07-11T01:17:40.257Z,18.5
2017-07-11T01:17:50.926Z,18.5
2017-07-11T01:18:00.919Z,18.5
2017-07-11T01:18:10.914Z,18.5
2017-07-11T01:18:19.904Z,18.5
2017-07-11T01:18:30.229Z,18.5
2017-07-11T01:18:40.907Z,18.5
2017-07-11T01:18:50.223Z,18.5
2017-07-11T01:19:00.555Z,18.5
2017-07-11T01:19:10.545Z,18.5
2017-07-11T01:19:20.544Z,18.5
2017-07-11T01:19:29.865Z,18.5
2017-07-11T01:19:40.536Z,18.5
2017-07-11T01:19:50.531Z,18.5
2017-07-11T01:20:00.853Z,18.5
2017-07-11T01:20:10.521Z,18.5
2017-07-11T01:20:19.840Z,18.5
2017-07-11T01:20:31.209Z,18.5
2017-07-11T01:20:40.167Z,18.5
2017-07-11T01:20:50.834Z,18.5
2017-07-11T01:21:00.489Z,18.5
2017-07-11T01:21:10.149Z,18.5
2017-07-11T01:21:20.155Z,18.5
2017-07-11T01:21:30.810Z,18.5
2017-07-11T01:21:40.474Z,18.5
2017-07-11T01:21:50.466Z,18.5
2017-07-11T01:22:00.460Z,18.5
2017-07-11T01:22:10.456Z,18.5
2017-07-11T01:22:20.448Z,18.5
2017-07-11T01:22:30.115Z,18.5
2017-07-11T01:22:40.444Z,18.5
2017-07-11T01:22:50.773Z,18.5
2017-07-11T01:22:59.761Z,18.5
2017-07-11T01:23:10.090Z,18.5
2017-07-11T01:23:20.087Z,18.4
2017-07-11T01:23:30.424Z,18.4
2017-07-11T01:23:40.077Z,18.4
2017-07-11T01:23:49.737Z,18.4
2017-07-11T01:24:00.403Z,18.4
2017-07-11T01:24:09.728Z,18.4
2017-07-11T01:24:20.061Z,18.4
2017-07-11T01:24:30.721Z,18.4
2017-07-11T01:24:40.714Z,18.4
2017-07-11T01:24:50.374Z,18.4
2017-07-11T01:25:00.377Z,18.4
2017-07-11T01:25:10.032Z,18.4
2017-07-11T01:25:19.696Z,18.4
2017-07-11T01:25:30.024Z,18.4
2017-07-11T01:25:40.352Z,18.4
2017-07-11T01:25:50.010Z,18.4
2017-07-11T01:25:59.675Z,18.4
2017-07-11T01:26:10.004Z,18.4
2017-07-11T01:26:20.334Z,18.4
2017-07-11T01:26:30.327Z,18.4
2017-07-11T01:26:40.322Z,18.4
2017-07-11T01:26:50.318Z,18.4
2017-07-11T01:26:59.978Z,18.4
2017-07-11T01:27:10.315Z,18.4
2017-07-11T01:27:19.972Z,18.4
2017-07-11T01:27:29.963Z,18.4
2017-07-11T01:27:39.957Z,18.4
2017-07-11T01:27:50.643Z,18.4
2017-07-11T01:28:00.283Z,18.4
2017-07-11T01:28:10.614Z,18.4
2017-07-11T01:28:20.276Z,18.4
2017-07-11T01:28:30.599Z,18.4
2017-07-11T01:28:40.263Z,18.4
2017-07-11T01:28:50.255Z,18.4
2017-07-11T01:28:59.914Z,18.4
2017-07-11T01:29:10.248Z,18.4
2017-07-11T01:29:20.254Z,18.4
2017-07-11T01:29:29.902Z,18.4
2017-07-11T01:29:39.899Z,18.4
2017-07-11T01:29:49.897Z,18.4
2017-07-11T01:29:59.895Z,18.4
2017-07-11T01:30:10.219Z,18.4
2017-07-11T01:30:20.546Z,18.4
2017-07-11T01:30:30.211Z,18.4
2017-07-11T01:30:39.540Z,18.4
2017-07-11T01:30:49.863Z,18.4
2017-07-11T01:31:00.197Z,18.4
2017-07-11T01:31:10.245Z,18.4
2017-07-11T01:31:20.522Z,18.4
2017-07-11T01:31:29.516Z,18.4
2017-07-11T01:31:40.173Z,18.4
2017-07-11T01:31:49.836Z,18.4
2017-07-11T01:32:00.500Z,18.4
2017-07-11T01:32:10.161Z,18.4
2017-07-11T01:32:19.821Z,18.4
2017-07-11T01:32:30.145Z,18.4
2017-07-11T01:32:40.145Z,18.4
2017-07-11T01:32:49.805Z,18.4
2017-07-11T01:32:59.799Z,18.4
2017-07-11T01:33:09.796Z,18.4
2017-07-11T01:33:20.132Z,18.4
2017-07-11T01:33:29.781Z,18.4
2017-07-11T01:33:39.783Z,18.4
2017-07-11T01:33:50.110Z,18.4
2017-07-11T01:33:59.766Z,18.4
2017-07-11T01:34:09.436Z,18.4
2017-07-11T01:34:20.093Z,18.4
2017-07-11T01:34:30.425Z,18.4
2017-07-11T01:34:40.088Z,18.4
2017-07-11T01:34:50.083Z,18.4
2017-07-11T01:35:00.405Z,18.4
2017-07-11T01:35:09.734Z,18.4
2017-07-11T01:35:19.737Z,18.4
2017-07-11T01:35:29.727Z,18.4
2017-07-11T01:35:40.055Z,18.4
2017-07-11T01:35:50.385Z,18.4
2017-07-11T01:36:00.048Z,18.4
2017-07-11T01:36:09.704Z,18.4
2017-07-11T01:36:19.702Z,18.4
2017-07-11T01:36:30.028Z,18.4
2017-07-11T01:36:39.695Z,18.4
2017-07-11T01:36:50.366Z,18.4
2017-07-11T01:37:00.018Z,18.4
2017-07-11T01:37:09.675Z,18.4
2017-07-11T01:37:20.716Z,18.4
2017-07-11T01:37:29.662Z,18.4
2017-07-11T01:37:39.662Z,18.4
2017-07-11T01:37:49.985Z,18.4
2017-07-11T01:38:00.326Z,18.4
2017-07-11T01:38:09.984Z,18.4
2017-07-11T01:38:19.983Z,18.4
2017-07-11T01:38:29.992Z,18.4
2017-07-11T01:38:39.985Z,18.4
2017-07-11T01:38:49.626Z,18.4
2017-07-11T01:38:59.961Z,18.4
2017-07-11T01:39:10.638Z,18.4
2017-07-11T01:39:20.277Z,18.4
2017-07-11T01:39:29.609Z,18.4
2017-07-11T01:39:40.273Z,18.4
2017-07-11T01:39:50.268Z,18.4
2017-07-11T01:40:00.263Z,18.4
2017-07-11T01:40:09.941Z,18.4
2017-07-11T01:40:19.916Z,18.4
2017-07-11T01:40:29.575Z,18.4
2017-07-11T01:40:39.576Z,18.4
2017-07-11T01:40:49.568Z,18.4
2017-07-11T01:41:00.236Z,18.4
2017-07-11T01:41:09.218Z,18.4
2017-07-11T01:41:19.889Z,18.4
2017-07-11T01:41:30.218Z,18.4
2017-07-11T01:41:40.216Z,18.4
2017-07-11T01:41:49.870Z,18.4
2017-07-11T01:42:00.201Z,18.4
2017-07-11T01:42:09.864Z,18.4
2017-07-11T01:42:19.525Z,18.4
2017-07-11T01:42:29.850Z,18.4
2017-07-11T01:42:40.190Z,18.4
2017-07-11T01:42:49.841Z,18.4
2017-07-11T01:42:59.506Z,18.4
2017-07-11T01:43:10.170Z,18.4
2017-07-11T01:43:19.827Z,18.4
2017-07-11T01:43:29.486Z,18.4
2017-07-11T01:43:40.153Z,18.4
2017-07-11T01:43:49.810Z,18.4
2017-07-11T01:43:59.806Z,18.4
2017-07-11T01:44:09.469Z,18.4
2017-07-11T01:44:19.796Z,18.4
2017-07-11T01:44:30.129Z,18.4
2017-07-11T01:44:39.789Z,18.4
2017-07-11T01:44:49.786Z,18.4
2017-07-11T01:44:59.780Z,18.4
2017-07-11T01:45:10.463Z,18.4
2017-07-11T01:45:19.442Z,18.4
2017-07-11T01:45:29.426Z,18.4
2017-07-11T01:45:39.425Z,18.4
2017-07-11T01:45:49.419Z,18.4
2017-07-11T01:45:59.082Z,18.4
2017-07-11T01:46:09.745Z,18.4
2017-07-11T01:46:19.401Z,18.4
2017-07-11T01:46:29.732Z,18.4
2017-07-11T01:46:40.063Z,18.4
2017-07-11T01:46:49.725Z,18.4
2017-07-11T01:46:59.720Z,18.4
2017-07-11T01:47:09.378Z,18.4
2017-07-11T01:47:19.706Z,18.5
2017-07-11T01:47:29.706Z,18.4
2017-07-11T01:47:40.035Z,18.5
2017-07-11T01:47:50.033Z,18.5
2017-07-11T01:47:59.352Z,18.5
2017-07-11T01:48:09.680Z,18.5
2017-07-11T01:48:19.680Z,18.5
2017-07-11T01:48:30.003Z,18.5
2017-07-11T01:48:39.667Z,18.5
2017-07-11T01:48:49.677Z,18.5
2017-07-11T01:48:59.655Z,18.5
2017-07-11T01:49:09.319Z,18.5
2017-07-11T01:49:19.316Z,18.5
2017-07-11T01:49:29.308Z,18.5
2017-07-11T01:49:39.638Z,18.5
2017-07-11T01:49:49.632Z,18.5
2017-07-11T01:49:59.294Z,18.5
2017-07-11T01:50:09.960Z,18.5
2017-07-11T01:50:19.282Z,18.5
2017-07-11T01:50:29.618Z,18.5
2017-07-11T01:50:38.940Z,18.5
2017-07-11T01:50:49.606Z,18.5
2017-07-11T01:50:59.598Z,18.5
2017-07-11T01:51:09.598Z,18.5
2017-07-11T01:51:19.256Z,18.5
2017-07-11T01:51:29.920Z,18.5
2017-07-11T01:51:39.240Z,18.5
2017-07-11T01:51:49.578Z,18.5
2017-07-11T01:51:59.905Z,18.5
2017-07-11T01:52:10.256Z,18.5
2017-07-11T01:52:19.891Z,18.5
2017-07-11T01:52:28.887Z,18.5
2017-07-11T01:52:39.883Z,18.5
2017-07-11T01:52:49.882Z,18.5
2017-07-11T01:52:59.536Z,18.5
2017-07-11T01:53:09.865Z,18.5
2017-07-11T01:53:19.538Z,18.5
2017-07-11T01:53:29.191Z,18.5
2017-07-11T01:53:39.185Z,18.5
2017-07-11T01:53:49.179Z,18.5
2017-07-11T01:53:59.510Z,18.5
2017-07-11T01:54:09.509Z,18.5
2017-07-11T01:54:19.163Z,18.5
2017-07-11T01:54:29.154Z,18.5
2017-07-11T01:54:39.820Z,18.5
2017-07-11T01:54:49.146Z,18.5
2017-07-11T01:54:59.484Z,18.6
2017-07-11T01:55:09.140Z,18.6
2017-07-11T01:55:19.473Z,18.6
2017-07-11T01:55:28.798Z,18.5
2017-07-11T01:55:39.458Z,18.5
2017-07-11T01:55:49.122Z,18.5
2017-07-11T01:55:59.789Z,18.6
2017-07-11T01:56:09.448Z,18.6
2017-07-11T01:56:19.773Z,18.6
2017-07-11T01:56:29.774Z,18.6
2017-07-11T01:56:39.428Z,18.6
2017-07-11T01:56:49.090Z,18.6
2017-07-11T01:56:59.423Z,18.6
2017-07-11T01:57:08.743Z,18.6
2017-07-11T01:57:19.752Z,18.6
2017-07-11T01:57:29.071Z,18.6
2017-07-11T01:57:39.064Z,18.6
2017-07-11T01:57:49.061Z,18.6
2017-07-11T01:57:59.729Z,18.6
2017-07-11T01:58:10.072Z,18.6
2017-07-11T01:58:19.382Z,18.6
2017-07-11T01:58:29.041Z,18.6
2017-07-11T01:58:39.374Z,18.7
2017-07-11T01:58:49.718Z,18.6
2017-07-11T01:58:59.700Z,18.6
2017-07-11T01:59:09.357Z,18.6
2017-07-11T01:59:19.348Z,18.6
2017-07-11T01:59:29.346Z,18.6
2017-07-11T01:59:39.690Z,18.6
2017-07-11T01:59:48.669Z,18.6
2017-07-11T01:59:59.330Z,18.6
2017-07-11T02:00:08.989Z,18.6
2017-07-11T02:00:19.322Z,18.6
2017-07-11T02:00:28.976Z,18.6
2017-07-11T02:00:38.976Z,18.6
2017-07-11T02:00:49.309Z,18.6
2017-07-11T02:00:58.966Z,18.6
2017-07-11T02:01:08.957Z,18.7
2017-07-11T02:01:19.629Z,18.7
2017-07-11T02:01:29.279Z,18.7
2017-07-11T02:01:39.281Z,18.6
2017-07-11T02:01:49.616Z,18.6
2017-07-11T02:01:58.938Z,18.6
2017-07-11T02:02:09.267Z,18.6
2017-07-11T02:02:18.925Z,18.7
2017-07-11T02:02:29.261Z,18.7
2017-07-11T02:02:39.250Z,18.7
2017-07-11T02:02:48.911Z,18.7
2017-07-11T02:02:58.912Z,18.6
2017-07-11T02:03:09.572Z,18.6
2017-07-11T02:03:19.568Z,18.7
2017-07-11T02:03:28.891Z,18.6
2017-07-11T02:03:39.225Z,18.6
2017-07-11T02:03:49.217Z,18.6
2017-07-11T02:03:59.210Z,18.7
2017-07-11T02:04:09.543Z,18.7
2017-07-11T02:04:19.544Z,18.6
2017-07-11T02:04:28.525Z,18.6
2017-07-11T02:04:39.195Z,18.6
2017-07-11T02:04:49.184Z,18.6
2017-07-11T02:04:58.513Z,18.6
2017-07-11T02:05:08.842Z,18.6
2017-07-11T02:05:19.172Z,18.6
2017-07-11T02:05:29.169Z,18.6
2017-07-11T02:05:39.851Z,18.6
2017-07-11T02:05:49.150Z,18.6
2017-07-11T02:05:59.487Z,18.6
2017-07-11T02:06:09.145Z,18.6
2017-07-11T02:06:19.144Z,18.6
2017-07-11T02:06:29.138Z,18.6
2017-07-11T02:06:38.796Z,18.6
2017-07-11T02:06:49.125Z,18.6
2017-07-11T02:06:59.119Z,18.6
2017-07-11T02:07:09.121Z,18.6
2017-07-11T02:07:18.442Z,18.6
2017-07-11T02:07:28.436Z,18.6
2017-07-11T02:07:39.104Z,18.6
2017-07-11T02:07:49.438Z,18.6
2017-07-11T02:07:59.427Z,18.6
2017-07-11T02:08:09.421Z,18.6
2017-07-11T02:08:19.773Z,18.6
2017-07-11T02:08:28.403Z,18.6
2017-07-11T02:08:39.077Z,18.6
2017-07-11T02:08:48.737Z,18.6
2017-07-11T02:08:59.062Z,18.6
2017-07-11T02:09:09.394Z,18.6
2017-07-11T02:09:18.718Z,18.6
2017-07-11T02:09:29.050Z,18.6
2017-07-11T02:09:38.707Z,18.6
2017-07-11T02:09:49.037Z,18.6
2017-07-11T02:09:58.699Z,18.6
2017-07-11T02:10:09.030Z,18.6
2017-07-11T02:10:19.074Z,18.6
2017-07-11T02:10:29.348Z,18.6
2017-07-11T02:10:39.167Z,18.6
2017-07-11T02:10:48.667Z,18.6
2017-07-11T02:10:59.006Z,18.6
2017-07-11T02:11:08.711Z,18.6
2017-07-11T02:11:18.657Z,18.6
2017-07-11T02:11:28.654Z,18.6
2017-07-11T02:11:39.691Z,18.6
2017-07-11T02:11:48.645Z,18.6
2017-07-11T02:11:58.975Z,18.7
2017-07-11T02:12:08.971Z,18.7
2017-07-11T02:12:19.298Z,18.6
2017-07-11T02:12:29.290Z,18.6
2017-07-11T02:12:38.948Z,18.6
2017-07-11T02:12:49.288Z,18.6
2017-07-11T02:12:59.286Z,18.6
2017-07-11T02:13:09.278Z,18.6
2017-07-11T02:13:18.265Z,18.6
2017-07-11T02:13:28.595Z,18.6
2017-07-11T02:13:39.257Z,18.6
2017-07-11T02:13:48.917Z,18.6
2017-07-11T02:13:58.915Z,18.6
2017-07-11T02:14:08.908Z,18.6
2017-07-11T02:14:18.236Z,18.6
2017-07-11T02:14:28.898Z,18.6
2017-07-11T02:14:38.894Z,18.6
2017-07-11T02:14:48.678Z,18.6
2017-07-11T02:14:58.881Z,18.6